sensor_id;sensor_type;location;lat;lon;timestamp;P1;durP1;ratioP1;P2;durP2;ratioP2
71806;SDS011;59655;42.590;23.364;2022-12-29T00:01:13;67.57;;;31.52;;
71806;SDS011;59655;42.590;23.364;2022-12-29T00:03:39;68.45;;;33.70;;
71806;SDS011;59655;42.590;23.364;2022-12-29T00:06:04;75.45;;;36.90;;
71806;SDS011;59655;42.590;23.364;2022-12-29T00:08:30;73.97;;;34.13;;
71806;SDS011;59655;42.590;23.364;2022-12-29T00:11:08;70.75;;;33.67;;
71806;SDS011;59655;42.590;23.364;2022-12-29T00:13:37;58.65;;;29.38;;
71806;SDS011;59655;42.590;23.364;2022-12-29T00:16:21;69.60;;;31.17;;
71806;SDS011;59655;42.590;23.364;2022-12-29T00:18:47;65.72;;;33.50;;
71806;SDS011;59655;42.590;23.364;2022-12-29T00:21:13;72.90;;;35.03;;
71806;SDS011;59655;42.590;23.364;2022-12-29T00:23:59;62.25;;;29.25;;
71806;SDS011;59655;42.590;23.364;2022-12-29T00:26:43;54.67;;;27.08;;
71806;SDS011;59655;42.590;23.364;2022-12-29T00:29:28;54.75;;;27.15;;
71806;SDS011;59655;42.590;23.364;2022-12-29T00:32:12;69.28;;;29.95;;
71806;SDS011;59655;42.590;23.364;2022-12-29T00:34:56;54.15;;;27.75;;
71806;SDS011;59655;42.590;23.364;2022-12-29T00:37:33;56.97;;;26.92;;
71806;SDS011;59655;42.590;23.364;2022-12-29T00:40:19;56.55;;;26.33;;
71806;SDS011;59655;42.590;23.364;2022-12-29T00:43:03;43.33;;;21.15;;
71806;SDS011;59655;42.590;23.364;2022-12-29T00:45:46;48.28;;;22.75;;
71806;SDS011;59655;42.590;23.364;2022-12-29T00:48:12;60.90;;;26.50;;
71806;SDS011;59655;42.590;23.364;2022-12-29T00:50:37;54.53;;;25.95;;
71806;SDS011;59655;42.590;23.364;2022-12-29T00:53:03;48.80;;;23.77;;
71806;SDS011;59655;42.590;23.364;2022-12-29T00:55:28;65.90;;;28.33;;
71806;SDS011;59655;42.590;23.364;2022-12-29T00:57:54;53.97;;;24.23;;
71806;SDS011;59655;42.590;23.364;2022-12-29T01:00:19;51.60;;;23.77;;
71806;SDS011;59655;42.590;23.364;2022-12-29T01:02:44;54.17;;;24.63;;
71806;SDS011;59655;42.590;23.364;2022-12-29T01:05:10;48.25;;;22.27;;
71806;SDS011;59655;42.590;23.364;2022-12-29T01:07:35;49.95;;;23.95;;
71806;SDS011;59655;42.590;23.364;2022-12-29T01:10:01;61.33;;;27.30;;
71806;SDS011;59655;42.590;23.364;2022-12-29T01:12:35;76.47;;;32.58;;
71806;SDS011;59655;42.590;23.364;2022-12-29T01:15:07;62.85;;;29.90;;
71806;SDS011;59655;42.590;23.364;2022-12-29T01:17:34;68.35;;;31.80;;
71806;SDS011;59655;42.590;23.364;2022-12-29T01:20:00;79.30;;;34.03;;
71806;SDS011;59655;42.590;23.364;2022-12-29T01:22:25;44.03;;;20.77;;
71806;SDS011;59655;42.590;23.364;2022-12-29T01:24:51;48.63;;;21.67;;
71806;SDS011;59655;42.590;23.364;2022-12-29T01:27:16;50.60;;;23.70;;
71806;SDS011;59655;42.590;23.364;2022-12-29T01:29:42;64.50;;;29.13;;
71806;SDS011;59655;42.590;23.364;2022-12-29T01:32:07;44.88;;;18.67;;
71806;SDS011;59655;42.590;23.364;2022-12-29T01:34:32;45.08;;;21.40;;
71806;SDS011;59655;42.590;23.364;2022-12-29T01:36:58;47.55;;;21.58;;
71806;SDS011;59655;42.590;23.364;2022-12-29T01:39:23;49.60;;;22.75;;
71806;SDS011;59655;42.590;23.364;2022-12-29T01:41:49;52.45;;;24.50;;
71806;SDS011;59655;42.590;23.364;2022-12-29T01:47:21;38.28;;;19.48;;
71806;SDS011;59655;42.590;23.364;2022-12-29T01:49:52;37.25;;;17.35;;
71806;SDS011;59655;42.590;23.364;2022-12-29T01:52:20;42.55;;;20.35;;
71806;SDS011;59655;42.590;23.364;2022-12-29T01:54:50;36.47;;;19.55;;
71806;SDS011;59655;42.590;23.364;2022-12-29T01:57:24;37.05;;;19.25;;
71806;SDS011;59655;42.590;23.364;2022-12-29T01:59:55;39.08;;;18.98;;
71806;SDS011;59655;42.590;23.364;2022-12-29T02:02:25;42.42;;;20.98;;
71806;SDS011;59655;42.590;23.364;2022-12-29T02:04:51;54.28;;;27.75;;
71806;SDS011;59655;42.590;23.364;2022-12-29T02:07:19;48.60;;;25.05;;
71806;SDS011;59655;42.590;23.364;2022-12-29T02:09:46;49.95;;;25.20;;
71806;SDS011;59655;42.590;23.364;2022-12-29T02:12:13;50.80;;;27.00;;
71806;SDS011;59655;42.590;23.364;2022-12-29T02:14:39;50.88;;;25.38;;
71806;SDS011;59655;42.590;23.364;2022-12-29T02:23:07;47.30;;;23.15;;
71806;SDS011;59655;42.590;23.364;2022-12-29T02:32:27;44.08;;;23.20;;
71806;SDS011;59655;42.590;23.364;2022-12-29T02:37:10;49.47;;;23.38;;
71806;SDS011;59655;42.590;23.364;2022-12-29T02:39:47;58.83;;;26.10;;
71806;SDS011;59655;42.590;23.364;2022-12-29T02:45:05;59.58;;;24.48;;
71806;SDS011;59655;42.590;23.364;2022-12-29T02:47:41;48.55;;;21.95;;
71806;SDS011;59655;42.590;23.364;2022-12-29T02:50:16;45.85;;;23.15;;
71806;SDS011;59655;42.590;23.364;2022-12-29T02:53:00;63.33;;;33.45;;
71806;SDS011;59655;42.590;23.364;2022-12-29T02:55:29;39.55;;;20.40;;
71806;SDS011;59655;42.590;23.364;2022-12-29T03:03:41;43.58;;;19.58;;
71806;SDS011;59655;42.590;23.364;2022-12-29T03:11:51;59.25;;;25.92;;
71806;SDS011;59655;42.590;23.364;2022-12-29T03:17:51;39.80;;;18.90;;
71806;SDS011;59655;42.590;23.364;2022-12-29T03:20:38;44.42;;;20.52;;
71806;SDS011;59655;42.590;23.364;2022-12-29T03:23:09;40.72;;;19.20;;
71806;SDS011;59655;42.590;23.364;2022-12-29T03:25:37;39.53;;;18.80;;
71806;SDS011;59655;42.590;23.364;2022-12-29T03:28:09;41.75;;;18.88;;
71806;SDS011;59655;42.590;23.364;2022-12-29T03:30:39;41.80;;;19.27;;
71806;SDS011;59655;42.590;23.364;2022-12-29T03:33:10;38.92;;;16.80;;
71806;SDS011;59655;42.590;23.364;2022-12-29T03:35:40;32.78;;;15.00;;
71806;SDS011;59655;42.590;23.364;2022-12-29T03:40:39;30.95;;;14.45;;
71806;SDS011;59655;42.590;23.364;2022-12-29T03:43:08;39.22;;;17.40;;
71806;SDS011;59655;42.590;23.364;2022-12-29T03:45:34;47.22;;;19.60;;
71806;SDS011;59655;42.590;23.364;2022-12-29T03:48:00;44.40;;;18.23;;
71806;SDS011;59655;42.590;23.364;2022-12-29T03:50:25;41.42;;;17.55;;
71806;SDS011;59655;42.590;23.364;2022-12-29T03:52:51;39.38;;;16.10;;
71806;SDS011;59655;42.590;23.364;2022-12-29T03:55:16;34.28;;;16.38;;
71806;SDS011;59655;42.590;23.364;2022-12-29T03:57:41;39.63;;;17.48;;
71806;SDS011;59655;42.590;23.364;2022-12-29T04:00:07;46.63;;;22.23;;
71806;SDS011;59655;42.590;23.364;2022-12-29T04:02:33;41.15;;;19.55;;
71806;SDS011;59655;42.590;23.364;2022-12-29T04:04:58;41.10;;;19.80;;
71806;SDS011;59655;42.590;23.364;2022-12-29T04:07:24;34.20;;;17.20;;
71806;SDS011;59655;42.590;23.364;2022-12-29T04:09:49;38.22;;;16.95;;
71806;SDS011;59655;42.590;23.364;2022-12-29T04:12:15;36.17;;;15.95;;
71806;SDS011;59655;42.590;23.364;2022-12-29T04:14:40;38.35;;;17.65;;
71806;SDS011;59655;42.590;23.364;2022-12-29T04:17:06;35.30;;;17.02;;
71806;SDS011;59655;42.590;23.364;2022-12-29T04:19:31;71.55;;;35.90;;
71806;SDS011;59655;42.590;23.364;2022-12-29T04:21:57;104.05;;;53.70;;
71806;SDS011;59655;42.590;23.364;2022-12-29T04:24:22;64.95;;;31.50;;
71806;SDS011;59655;42.590;23.364;2022-12-29T04:26:47;48.35;;;22.80;;
71806;SDS011;59655;42.590;23.364;2022-12-29T04:29:13;46.45;;;24.60;;
71806;SDS011;59655;42.590;23.364;2022-12-29T04:31:38;48.67;;;23.60;;
71806;SDS011;59655;42.590;23.364;2022-12-29T04:34:04;47.88;;;21.20;;
71806;SDS011;59655;42.590;23.364;2022-12-29T04:36:29;44.45;;;20.88;;
71806;SDS011;59655;42.590;23.364;2022-12-29T04:38:54;44.08;;;20.77;;
71806;SDS011;59655;42.590;23.364;2022-12-29T04:41:20;42.42;;;19.75;;
71806;SDS011;59655;42.590;23.364;2022-12-29T04:43:45;42.00;;;20.30;;
71806;SDS011;59655;42.590;23.364;2022-12-29T04:46:11;37.00;;;19.70;;
71806;SDS011;59655;42.590;23.364;2022-12-29T04:48:36;40.63;;;21.50;;
71806;SDS011;59655;42.590;23.364;2022-12-29T04:51:01;38.28;;;19.90;;
71806;SDS011;59655;42.590;23.364;2022-12-29T04:53:27;42.97;;;21.08;;
71806;SDS011;59655;42.590;23.364;2022-12-29T04:55:52;37.28;;;19.63;;
71806;SDS011;59655;42.590;23.364;2022-12-29T04:58:18;47.53;;;22.30;;
71806;SDS011;59655;42.590;23.364;2022-12-29T05:00:44;42.22;;;20.20;;
71806;SDS011;59655;42.590;23.364;2022-12-29T05:03:10;41.55;;;18.60;;
71806;SDS011;59655;42.590;23.364;2022-12-29T05:05:35;41.60;;;21.15;;
71806;SDS011;59655;42.590;23.364;2022-12-29T05:08:01;41.63;;;22.27;;
71806;SDS011;59655;42.590;23.364;2022-12-29T05:10:27;50.17;;;23.10;;
71806;SDS011;59655;42.590;23.364;2022-12-29T05:12:52;43.00;;;23.30;;
71806;SDS011;59655;42.590;23.364;2022-12-29T05:15:18;45.33;;;23.08;;
71806;SDS011;59655;42.590;23.364;2022-12-29T05:17:44;53.40;;;22.45;;
71806;SDS011;59655;42.590;23.364;2022-12-29T05:20:09;80.72;;;42.25;;
71806;SDS011;59655;42.590;23.364;2022-12-29T05:22:35;49.80;;;23.00;;
71806;SDS011;59655;42.590;23.364;2022-12-29T05:25:01;45.65;;;22.58;;
71806;SDS011;59655;42.590;23.364;2022-12-29T05:27:26;66.25;;;35.30;;
71806;SDS011;59655;42.590;23.364;2022-12-29T05:29:52;62.33;;;33.35;;
71806;SDS011;59655;42.590;23.364;2022-12-29T05:32:17;42.30;;;21.55;;
71806;SDS011;59655;42.590;23.364;2022-12-29T05:34:43;63.22;;;32.95;;
71806;SDS011;59655;42.590;23.364;2022-12-29T05:37:08;58.33;;;28.73;;
71806;SDS011;59655;42.590;23.364;2022-12-29T05:39:33;56.42;;;30.27;;
71806;SDS011;59655;42.590;23.364;2022-12-29T05:41:59;63.15;;;32.72;;
71806;SDS011;59655;42.590;23.364;2022-12-29T05:44:24;65.88;;;31.50;;
71806;SDS011;59655;42.590;23.364;2022-12-29T05:46:50;55.17;;;27.42;;
71806;SDS011;59655;42.590;23.364;2022-12-29T05:49:16;55.25;;;28.75;;
71806;SDS011;59655;42.590;23.364;2022-12-29T05:51:41;51.75;;;26.60;;
71806;SDS011;59655;42.590;23.364;2022-12-29T05:54:07;51.90;;;25.13;;
71806;SDS011;59655;42.590;23.364;2022-12-29T05:56:32;51.05;;;24.58;;
71806;SDS011;59655;42.590;23.364;2022-12-29T05:58:58;55.92;;;25.98;;
71806;SDS011;59655;42.590;23.364;2022-12-29T06:01:23;73.75;;;32.55;;
71806;SDS011;59655;42.590;23.364;2022-12-29T06:03:48;71.15;;;30.98;;
71806;SDS011;59655;42.590;23.364;2022-12-29T06:06:14;53.97;;;23.13;;
71806;SDS011;59655;42.590;23.364;2022-12-29T06:08:39;42.47;;;18.60;;
71806;SDS011;59655;42.590;23.364;2022-12-29T06:11:05;39.47;;;17.58;;
71806;SDS011;59655;42.590;23.364;2022-12-29T06:13:30;36.92;;;17.88;;
71806;SDS011;59655;42.590;23.364;2022-12-29T06:15:56;39.20;;;18.08;;
71806;SDS011;59655;42.590;23.364;2022-12-29T06:18:23;40.70;;;18.42;;
71806;SDS011;59655;42.590;23.364;2022-12-29T06:20:48;34.42;;;19.48;;
71806;SDS011;59655;42.590;23.364;2022-12-29T06:23:14;59.70;;;33.42;;
71806;SDS011;59655;42.590;23.364;2022-12-29T06:25:40;73.80;;;39.67;;
71806;SDS011;59655;42.590;23.364;2022-12-29T06:28:05;61.97;;;35.95;;
71806;SDS011;59655;42.590;23.364;2022-12-29T06:30:31;69.57;;;37.03;;
71806;SDS011;59655;42.590;23.364;2022-12-29T06:32:57;59.22;;;32.20;;
71806;SDS011;59655;42.590;23.364;2022-12-29T06:35:23;54.30;;;29.20;;
71806;SDS011;59655;42.590;23.364;2022-12-29T06:37:49;52.50;;;28.15;;
71806;SDS011;59655;42.590;23.364;2022-12-29T06:40:14;71.28;;;38.90;;
71806;SDS011;59655;42.590;23.364;2022-12-29T06:42:40;94.43;;;46.80;;
71806;SDS011;59655;42.590;23.364;2022-12-29T06:45:05;99.70;;;45.03;;
71806;SDS011;59655;42.590;23.364;2022-12-29T06:47:32;104.00;;;48.17;;
71806;SDS011;59655;42.590;23.364;2022-12-29T06:49:58;86.40;;;39.33;;
71806;SDS011;59655;42.590;23.364;2022-12-29T06:52:24;80.93;;;38.95;;
71806;SDS011;59655;42.590;23.364;2022-12-29T06:54:49;94.10;;;40.08;;
71806;SDS011;59655;42.590;23.364;2022-12-29T06:57:15;91.68;;;42.80;;
71806;SDS011;59655;42.590;23.364;2022-12-29T06:59:40;82.60;;;38.70;;
71806;SDS011;59655;42.590;23.364;2022-12-29T07:02:06;98.90;;;46.40;;
71806;SDS011;59655;42.590;23.364;2022-12-29T07:04:31;105.38;;;48.28;;
71806;SDS011;59655;42.590;23.364;2022-12-29T07:06:57;209.30;;;78.00;;
71806;SDS011;59655;42.590;23.364;2022-12-29T07:09:22;208.40;;;76.82;;
71806;SDS011;59655;42.590;23.364;2022-12-29T07:11:48;219.77;;;84.90;;
71806;SDS011;59655;42.590;23.364;2022-12-29T07:14:13;192.88;;;71.47;;
71806;SDS011;59655;42.590;23.364;2022-12-29T07:16:39;136.05;;;59.10;;
71806;SDS011;59655;42.590;23.364;2022-12-29T07:19:04;160.95;;;65.65;;
71806;SDS011;59655;42.590;23.364;2022-12-29T07:21:30;154.45;;;64.60;;
71806;SDS011;59655;42.590;23.364;2022-12-29T07:23:55;150.73;;;66.13;;
71806;SDS011;59655;42.590;23.364;2022-12-29T07:26:21;138.13;;;62.53;;
71806;SDS011;59655;42.590;23.364;2022-12-29T07:28:47;136.40;;;60.25;;
71806;SDS011;59655;42.590;23.364;2022-12-29T07:31:13;142.55;;;59.78;;
71806;SDS011;59655;42.590;23.364;2022-12-29T07:33:44;126.90;;;53.83;;
71806;SDS011;59655;42.590;23.364;2022-12-29T07:36:10;72.00;;;34.08;;
71806;SDS011;59655;42.590;23.364;2022-12-29T07:38:37;58.42;;;28.27;;
71806;SDS011;59655;42.590;23.364;2022-12-29T07:41:03;50.53;;;23.80;;
71806;SDS011;59655;42.590;23.364;2022-12-29T07:43:30;47.47;;;23.10;;
71806;SDS011;59655;42.590;23.364;2022-12-29T07:45:55;49.35;;;22.67;;
71806;SDS011;59655;42.590;23.364;2022-12-29T07:48:22;54.75;;;23.45;;
71806;SDS011;59655;42.590;23.364;2022-12-29T07:50:47;48.13;;;23.00;;
71806;SDS011;59655;42.590;23.364;2022-12-29T07:53:13;53.85;;;24.13;;
71806;SDS011;59655;42.590;23.364;2022-12-29T07:55:39;54.00;;;26.08;;
71806;SDS011;59655;42.590;23.364;2022-12-29T07:58:05;54.13;;;23.60;;
71806;SDS011;59655;42.590;23.364;2022-12-29T08:00:30;55.30;;;24.23;;
71806;SDS011;59655;42.590;23.364;2022-12-29T08:02:55;50.22;;;23.58;;
71806;SDS011;59655;42.590;23.364;2022-12-29T08:05:21;53.25;;;23.80;;
71806;SDS011;59655;42.590;23.364;2022-12-29T08:07:47;60.58;;;27.05;;
71806;SDS011;59655;42.590;23.364;2022-12-29T08:10:12;58.25;;;26.92;;
71806;SDS011;59655;42.590;23.364;2022-12-29T08:12:39;72.80;;;33.88;;
71806;SDS011;59655;42.590;23.364;2022-12-29T08:15:05;69.70;;;31.42;;
71806;SDS011;59655;42.590;23.364;2022-12-29T08:17:32;71.03;;;31.05;;
71806;SDS011;59655;42.590;23.364;2022-12-29T08:19:57;73.97;;;32.38;;
71806;SDS011;59655;42.590;23.364;2022-12-29T08:22:23;74.88;;;33.00;;
71806;SDS011;59655;42.590;23.364;2022-12-29T08:24:48;76.43;;;34.70;;
71806;SDS011;59655;42.590;23.364;2022-12-29T08:27:14;77.95;;;34.67;;
71806;SDS011;59655;42.590;23.364;2022-12-29T08:29:39;81.45;;;36.13;;
71806;SDS011;59655;42.590;23.364;2022-12-29T08:32:05;76.38;;;32.30;;
71806;SDS011;59655;42.590;23.364;2022-12-29T08:34:31;86.15;;;37.55;;
71806;SDS011;59655;42.590;23.364;2022-12-29T08:36:57;84.00;;;37.95;;
71806;SDS011;59655;42.590;23.364;2022-12-29T08:39:22;84.03;;;39.50;;
71806;SDS011;59655;42.590;23.364;2022-12-29T08:41:48;82.75;;;37.15;;
71806;SDS011;59655;42.590;23.364;2022-12-29T08:44:13;90.32;;;39.35;;
71806;SDS011;59655;42.590;23.364;2022-12-29T08:46:38;94.45;;;40.13;;
71806;SDS011;59655;42.590;23.364;2022-12-29T08:49:04;95.30;;;40.35;;
71806;SDS011;59655;42.590;23.364;2022-12-29T08:51:29;89.68;;;39.72;;
71806;SDS011;59655;42.590;23.364;2022-12-29T08:53:55;89.13;;;41.22;;
71806;SDS011;59655;42.590;23.364;2022-12-29T08:56:20;90.85;;;40.33;;
71806;SDS011;59655;42.590;23.364;2022-12-29T08:58:46;89.88;;;40.25;;
71806;SDS011;59655;42.590;23.364;2022-12-29T09:01:11;85.13;;;38.17;;
71806;SDS011;59655;42.590;23.364;2022-12-29T09:03:37;85.82;;;38.45;;
71806;SDS011;59655;42.590;23.364;2022-12-29T09:06:02;95.18;;;44.08;;
71806;SDS011;59655;42.590;23.364;2022-12-29T09:08:28;96.60;;;41.80;;
71806;SDS011;59655;42.590;23.364;2022-12-29T09:10:53;98.00;;;41.78;;
71806;SDS011;59655;42.590;23.364;2022-12-29T09:13:19;90.32;;;40.53;;
71806;SDS011;59655;42.590;23.364;2022-12-29T09:15:44;94.50;;;41.25;;
71806;SDS011;59655;42.590;23.364;2022-12-29T09:18:10;93.78;;;41.15;;
71806;SDS011;59655;42.590;23.364;2022-12-29T09:20:36;96.78;;;43.92;;
71806;SDS011;59655;42.590;23.364;2022-12-29T09:23:02;91.90;;;40.47;;
71806;SDS011;59655;42.590;23.364;2022-12-29T09:25:28;92.90;;;40.30;;
71806;SDS011;59655;42.590;23.364;2022-12-29T09:27:54;94.15;;;41.75;;
71806;SDS011;59655;42.590;23.364;2022-12-29T09:30:21;103.55;;;44.53;;
71806;SDS011;59655;42.590;23.364;2022-12-29T09:32:47;102.03;;;43.90;;
71806;SDS011;59655;42.590;23.364;2022-12-29T09:35:14;100.03;;;42.33;;
71806;SDS011;59655;42.590;23.364;2022-12-29T09:37:41;96.95;;;41.72;;
71806;SDS011;59655;42.590;23.364;2022-12-29T09:40:14;95.13;;;42.00;;
71806;SDS011;59655;42.590;23.364;2022-12-29T09:43:07;98.50;;;42.45;;
71806;SDS011;59655;42.590;23.364;2022-12-29T09:45:47;101.10;;;43.63;;
71806;SDS011;59655;42.590;23.364;2022-12-29T09:48:39;96.22;;;43.88;;
71806;SDS011;59655;42.590;23.364;2022-12-29T09:51:09;99.43;;;46.05;;
71806;SDS011;59655;42.590;23.364;2022-12-29T09:53:40;104.45;;;44.97;;
71806;SDS011;59655;42.590;23.364;2022-12-29T09:56:15;105.22;;;44.92;;
71806;SDS011;59655;42.590;23.364;2022-12-29T09:58:50;106.97;;;46.40;;
71806;SDS011;59655;42.590;23.364;2022-12-29T10:04:16;102.40;;;43.28;;
71806;SDS011;59655;42.590;23.364;2022-12-29T10:06:44;108.88;;;44.55;;
71806;SDS011;59655;42.590;23.364;2022-12-29T10:13:01;102.85;;;44.40;;
71806;SDS011;59655;42.590;23.364;2022-12-29T10:15:39;100.45;;;43.33;;
71806;SDS011;59655;42.590;23.364;2022-12-29T10:18:11;106.22;;;43.53;;
71806;SDS011;59655;42.590;23.364;2022-12-29T10:20:48;104.82;;;44.53;;
71806;SDS011;59655;42.590;23.364;2022-12-29T10:25:57;107.22;;;46.20;;
71806;SDS011;59655;42.590;23.364;2022-12-29T10:28:31;100.35;;;43.58;;
71806;SDS011;59655;42.590;23.364;2022-12-29T10:31:01;103.57;;;44.15;;
71806;SDS011;59655;42.590;23.364;2022-12-29T10:33:36;104.20;;;45.53;;
71806;SDS011;59655;42.590;23.364;2022-12-29T10:41:21;77.28;;;31.55;;
71806;SDS011;59655;42.590;23.364;2022-12-29T10:43:58;77.18;;;33.35;;
71806;SDS011;59655;42.590;23.364;2022-12-29T10:46:27;92.13;;;38.38;;
71806;SDS011;59655;42.590;23.364;2022-12-29T10:48:55;93.88;;;38.13;;
71806;SDS011;59655;42.590;23.364;2022-12-29T10:51:24;93.93;;;40.17;;
71806;SDS011;59655;42.590;23.364;2022-12-29T10:54:06;100.70;;;41.90;;
71806;SDS011;59655;42.590;23.364;2022-12-29T10:56:59;101.97;;;42.38;;
71806;SDS011;59655;42.590;23.364;2022-12-29T10:59:33;103.90;;;43.47;;
71806;SDS011;59655;42.590;23.364;2022-12-29T11:07:03;97.60;;;41.33;;
71806;SDS011;59655;42.590;23.364;2022-12-29T11:09:32;103.45;;;40.90;;
71806;SDS011;59655;42.590;23.364;2022-12-29T11:12:03;91.72;;;39.17;;
71806;SDS011;59655;42.590;23.364;2022-12-29T11:14:44;103.57;;;41.30;;
71806;SDS011;59655;42.590;23.364;2022-12-29T11:17:12;120.20;;;44.42;;
71806;SDS011;59655;42.590;23.364;2022-12-29T11:19:40;111.68;;;45.67;;
71806;SDS011;59655;42.590;23.364;2022-12-29T11:24:49;96.00;;;37.70;;
71806;SDS011;59655;42.590;23.364;2022-12-29T11:27:21;97.97;;;38.88;;
71806;SDS011;59655;42.590;23.364;2022-12-29T11:29:49;90.55;;;36.72;;
71806;SDS011;59655;42.590;23.364;2022-12-29T11:34:45;94.50;;;38.92;;
71806;SDS011;59655;42.590;23.364;2022-12-29T11:39:40;99.65;;;38.47;;
71806;SDS011;59655;42.590;23.364;2022-12-29T11:42:58;87.85;;;36.08;;
71806;SDS011;59655;42.590;23.364;2022-12-29T11:45:21;85.82;;;34.47;;
71806;SDS011;59655;42.590;23.364;2022-12-29T11:47:49;83.88;;;35.33;;
71806;SDS011;59655;42.590;23.364;2022-12-29T11:50:19;88.07;;;36.00;;
71806;SDS011;59655;42.590;23.364;2022-12-29T11:52:48;95.07;;;36.17;;
71806;SDS011;59655;42.590;23.364;2022-12-29T11:55:23;87.43;;;35.70;;
71806;SDS011;59655;42.590;23.364;2022-12-29T11:57:51;87.80;;;35.88;;
71806;SDS011;59655;42.590;23.364;2022-12-29T12:00:20;99.18;;;39.00;;
71806;SDS011;59655;42.590;23.364;2022-12-29T12:07:57;92.78;;;34.65;;
71806;SDS011;59655;42.590;23.364;2022-12-29T12:10:33;94.55;;;37.75;;
71806;SDS011;59655;42.590;23.364;2022-12-29T12:15:44;90.97;;;36.05;;
71806;SDS011;59655;42.590;23.364;2022-12-29T12:18:19;102.05;;;37.85;;
71806;SDS011;59655;42.590;23.364;2022-12-29T12:20:54;91.55;;;37.05;;
71806;SDS011;59655;42.590;23.364;2022-12-29T12:23:36;95.93;;;38.17;;
71806;SDS011;59655;42.590;23.364;2022-12-29T12:34:35;101.43;;;40.90;;
71806;SDS011;59655;42.590;23.364;2022-12-29T12:47:50;110.18;;;41.03;;
71806;SDS011;59655;42.590;23.364;2022-12-29T12:50:35;108.75;;;43.13;;
71806;SDS011;59655;42.590;23.364;2022-12-29T12:55:41;116.00;;;43.38;;
71806;SDS011;59655;42.590;23.364;2022-12-29T13:01:06;119.28;;;44.08;;
71806;SDS011;59655;42.590;23.364;2022-12-29T13:12:47;130.45;;;49.38;;
71806;SDS011;59655;42.590;23.364;2022-12-29T13:20:54;120.10;;;42.97;;
71806;SDS011;59655;42.590;23.364;2022-12-29T13:26:51;121.03;;;44.70;;
71806;SDS011;59655;42.590;23.364;2022-12-29T13:37:18;109.72;;;46.42;;
71806;SDS011;59655;42.590;23.364;2022-12-29T13:39:57;117.22;;;46.15;;
71806;SDS011;59655;42.590;23.364;2022-12-29T13:42:28;122.93;;;48.30;;
71806;SDS011;59655;42.590;23.364;2022-12-29T13:45:02;139.60;;;47.67;;
71806;SDS011;59655;42.590;23.364;2022-12-29T13:50:08;120.47;;;45.38;;
71806;SDS011;59655;42.590;23.364;2022-12-29T13:52:44;114.88;;;45.22;;
71806;SDS011;59655;42.590;23.364;2022-12-29T14:06:29;133.05;;;49.65;;
71806;SDS011;59655;42.590;23.364;2022-12-29T14:11:35;136.15;;;49.15;;
71806;SDS011;59655;42.590;23.364;2022-12-29T14:14:21;137.55;;;49.20;;
71806;SDS011;59655;42.590;23.364;2022-12-29T14:16:49;126.00;;;48.58;;
71806;SDS011;59655;42.590;23.364;2022-12-29T14:19:17;132.30;;;48.63;;
71806;SDS011;59655;42.590;23.364;2022-12-29T14:21:53;155.07;;;56.10;;
71806;SDS011;59655;42.590;23.364;2022-12-29T14:26:59;203.43;;;77.47;;
71806;SDS011;59655;42.590;23.364;2022-12-29T14:34:46;120.15;;;49.53;;
71806;SDS011;59655;42.590;23.364;2022-12-29T14:37:24;126.65;;;50.15;;
71806;SDS011;59655;42.590;23.364;2022-12-29T14:39:50;132.20;;;54.38;;
71806;SDS011;59655;42.590;23.364;2022-12-29T14:42:44;141.25;;;55.10;;
71806;SDS011;59655;42.590;23.364;2022-12-29T14:52:56;93.18;;;33.42;;
71806;SDS011;59655;42.590;23.364;2022-12-29T14:55:42;105.47;;;37.92;;
71806;SDS011;59655;42.590;23.364;2022-12-29T14:58:18;98.65;;;36.60;;
71806;SDS011;59655;42.590;23.364;2022-12-29T15:00:52;101.15;;;37.58;;
71806;SDS011;59655;42.590;23.364;2022-12-29T15:08:19;214.35;;;72.82;;
71806;SDS011;59655;42.590;23.364;2022-12-29T15:10:53;175.43;;;67.63;;
71806;SDS011;59655;42.590;23.364;2022-12-29T15:13:38;170.45;;;60.75;;
71806;SDS011;59655;42.590;23.364;2022-12-29T15:16:05;203.70;;;76.80;;
71806;SDS011;59655;42.590;23.364;2022-12-29T15:18:46;180.93;;;62.42;;
71806;SDS011;59655;42.590;23.364;2022-12-29T15:21:12;195.02;;;70.50;;
71806;SDS011;59655;42.590;23.364;2022-12-29T15:26:07;179.82;;;73.22;;
71806;SDS011;59655;42.590;23.364;2022-12-29T15:28:40;170.07;;;61.70;;
71806;SDS011;59655;42.590;23.364;2022-12-29T15:33:39;203.93;;;72.13;;
71806;SDS011;59655;42.590;23.364;2022-12-29T15:36:10;205.05;;;75.95;;
71806;SDS011;59655;42.590;23.364;2022-12-29T15:38:38;544.63;;;166.95;;
71806;SDS011;59655;42.590;23.364;2022-12-29T15:41:19;416.98;;;139.55;;
71806;SDS011;59655;42.590;23.364;2022-12-29T15:46:21;283.38;;;104.03;;
71806;SDS011;59655;42.590;23.364;2022-12-29T15:48:47;226.10;;;85.40;;
71806;SDS011;59655;42.590;23.364;2022-12-29T15:51:16;226.45;;;88.32;;
71806;SDS011;59655;42.590;23.364;2022-12-29T15:53:46;220.77;;;86.82;;
71806;SDS011;59655;42.590;23.364;2022-12-29T15:56:13;371.33;;;139.25;;
71806;SDS011;59655;42.590;23.364;2022-12-29T15:58:40;322.35;;;125.18;;
71806;SDS011;59655;42.590;23.364;2022-12-29T16:01:16;265.23;;;111.05;;
71806;SDS011;59655;42.590;23.364;2022-12-29T16:04:04;233.27;;;98.00;;
71806;SDS011;59655;42.590;23.364;2022-12-29T16:06:33;196.15;;;76.78;;
71806;SDS011;59655;42.590;23.364;2022-12-29T16:11:47;100.88;;;37.25;;
71806;SDS011;59655;42.590;23.364;2022-12-29T16:14:18;171.90;;;102.28;;
71806;SDS011;59655;42.590;23.364;2022-12-29T16:16:49;127.25;;;57.10;;
71806;SDS011;59655;42.590;23.364;2022-12-29T16:19:18;97.75;;;39.30;;
71806;SDS011;59655;42.590;23.364;2022-12-29T16:21:45;100.75;;;41.13;;
71806;SDS011;59655;42.590;23.364;2022-12-29T16:24:14;114.63;;;46.28;;
71806;SDS011;59655;42.590;23.364;2022-12-29T16:27:31;92.47;;;42.55;;
71806;SDS011;59655;42.590;23.364;2022-12-29T16:29:42;92.00;;;41.55;;
71806;SDS011;59655;42.590;23.364;2022-12-29T16:35:21;91.70;;;38.63;;
71806;SDS011;59655;42.590;23.364;2022-12-29T16:37:48;156.88;;;63.45;;
71806;SDS011;59655;42.590;23.364;2022-12-29T16:40:33;269.80;;;102.78;;
71806;SDS011;59655;42.590;23.364;2022-12-29T16:43:03;203.32;;;79.63;;
71806;SDS011;59655;42.590;23.364;2022-12-29T16:50:39;214.57;;;90.18;;
71806;SDS011;59655;42.590;23.364;2022-12-29T16:55:53;230.43;;;88.85;;
71806;SDS011;59655;42.590;23.364;2022-12-29T16:58:24;201.75;;;81.00;;
71806;SDS011;59655;42.590;23.364;2022-12-29T17:00:55;195.68;;;74.20;;
71806;SDS011;59655;42.590;23.364;2022-12-29T17:03:23;254.25;;;87.10;;
71806;SDS011;59655;42.590;23.364;2022-12-29T17:05:56;293.30;;;101.93;;
71806;SDS011;59655;42.590;23.364;2022-12-29T17:08:21;250.30;;;95.65;;
71806;SDS011;59655;42.590;23.364;2022-12-29T17:10:50;230.70;;;83.93;;
71806;SDS011;59655;42.590;23.364;2022-12-29T17:13:36;220.13;;;72.75;;
71806;SDS011;59655;42.590;23.364;2022-12-29T17:16:02;176.70;;;65.65;;
71806;SDS011;59655;42.590;23.364;2022-12-29T17:18:29;144.80;;;50.63;;